sensor_id;sensor_type;location;lat;lon;timestamp;P1;durP1;ratioP1;P2;durP2;ratioP2
16426;SDS011;8322;-33.900;151.170;2023-04-15T00:01:57;2.45;;;1.10;;
16426;SDS011;8322;-33.900;151.170;2023-04-15T00:04:29;3.17;;;1.10;;
16426;SDS011;8322;-33.900;151.170;2023-04-15T00:06:58;4.97;;;1.75;;
16426;SDS011;8322;-33.900;151.170;2023-04-15T00:09:28;2.13;;;0.90;;
16426;SDS011;8322;-33.900;151.170;2023-04-15T00:11:57;3.60;;;0.90;;
16426;SDS011;8322;-33.900;151.170;2023-04-15T00:14:27;3.78;;;0.60;;
16426;SDS011;8322;-33.900;151.170;2023-04-15T00:16:56;2.92;;;0.80;;
16426;SDS011;8322;-33.900;151.170;2023-04-15T00:19:26;3.00;;;0.82;;
16426;SDS011;8322;-33.900;151.170;2023-04-15T00:21:57;2.75;;;0.85;;
16426;SDS011;8322;-33.900;151.170;2023-04-15T00:24:26;3.83;;;1.30;;
16426;SDS011;8322;-33.900;151.170;2023-04-15T00:26:56;3.22;;;0.80;;
16426;SDS011;8322;-33.900;151.170;2023-04-15T00:29:25;3.75;;;0.90;;
16426;SDS011;8322;-33.900;151.170;2023-04-15T00:31:55;2.83;;;0.90;;
16426;SDS011;8322;-33.900;151.170;2023-04-15T00:34:25;2.22;;;0.80;;
16426;SDS011;8322;-33.900;151.170;2023-04-15T00:36:55;3.53;;;1.00;;
16426;SDS011;8322;-33.900;151.170;2023-04-15T00:39:26;3.70;;;1.35;;
16426;SDS011;8322;-33.900;151.170;2023-04-15T00:41:55;5.38;;;0.80;;
16426;SDS011;8322;-33.900;151.170;2023-04-15T00:44:25;2.45;;;0.85;;
16426;SDS011;8322;-33.900;151.170;2023-04-15T00:46:55;3.40;;;0.68;;
16426;SDS011;8322;-33.900;151.170;2023-04-15T00:49:25;2.15;;;0.57;;
16426;SDS011;8322;-33.900;151.170;2023-04-15T00:51:54;2.67;;;0.90;;
16426;SDS011;8322;-33.900;151.170;2023-04-15T00:54:24;2.20;;;0.88;;
16426;SDS011;8322;-33.900;151.170;2023-04-15T00:56:55;3.53;;;0.80;;
16426;SDS011;8322;-33.900;151.170;2023-04-15T00:59:25;3.55;;;0.80;;
16426;SDS011;8322;-33.900;151.170;2023-04-15T01:01:55;3.47;;;0.80;;
16426;SDS011;8322;-33.900;151.170;2023-04-15T01:04:24;2.55;;;0.70;;
16426;SDS011;8322;-33.900;151.170;2023-04-15T01:06:54;2.65;;;0.80;;
16426;SDS011;8322;-33.900;151.170;2023-04-15T01:09:23;4.50;;;0.77;;
16426;SDS011;8322;-33.900;151.170;2023-04-15T01:11:53;2.58;;;0.80;;
16426;SDS011;8322;-33.900;151.170;2023-04-15T01:14:24;4.78;;;0.80;;
16426;SDS011;8322;-33.900;151.170;2023-04-15T01:16:54;5.35;;;1.10;;
16426;SDS011;8322;-33.900;151.170;2023-04-15T01:19:23;3.08;;;0.60;;
16426;SDS011;8322;-33.900;151.170;2023-04-15T01:21:53;2.67;;;1.10;;
16426;SDS011;8322;-33.900;151.170;2023-04-15T01:24:23;1.67;;;0.60;;
16426;SDS011;8322;-33.900;151.170;2023-04-15T01:26:56;5.30;;;2.95;;
16426;SDS011;8322;-33.900;151.170;2023-04-15T01:29:25;2.72;;;0.70;;
16426;SDS011;8322;-33.900;151.170;2023-04-15T01:31:55;2.22;;;0.63;;
16426;SDS011;8322;-33.900;151.170;2023-04-15T01:34:24;3.55;;;1.60;;
16426;SDS011;8322;-33.900;151.170;2023-04-15T01:36:54;3.05;;;1.00;;
16426;SDS011;8322;-33.900;151.170;2023-04-15T01:39:23;3.67;;;1.25;;
16426;SDS011;8322;-33.900;151.170;2023-04-15T01:41:52;3.33;;;1.10;;
16426;SDS011;8322;-33.900;151.170;2023-04-15T01:44:24;2.40;;;0.80;;
16426;SDS011;8322;-33.900;151.170;2023-04-15T01:46:53;3.20;;;0.80;;
16426;SDS011;8322;-33.900;151.170;2023-04-15T01:49:23;3.17;;;0.70;;
16426;SDS011;8322;-33.900;151.170;2023-04-15T01:51:52;2.75;;;0.80;;
16426;SDS011;8322;-33.900;151.170;2023-04-15T01:54:22;3.30;;;1.10;;
16426;SDS011;8322;-33.900;151.170;2023-04-15T01:56:52;2.03;;;0.68;;
16426;SDS011;8322;-33.900;151.170;2023-04-15T01:59:26;3.28;;;0.60;;
16426;SDS011;8322;-33.900;151.170;2023-04-15T02:01:56;6.13;;;1.67;;
16426;SDS011;8322;-33.900;151.170;2023-04-15T02:04:26;2.58;;;0.75;;
16426;SDS011;8322;-33.900;151.170;2023-04-15T02:06:55;2.60;;;0.60;;
16426;SDS011;8322;-33.900;151.170;2023-04-15T02:09:25;1.90;;;0.60;;
16426;SDS011;8322;-33.900;151.170;2023-04-15T02:11:55;3.47;;;0.90;;
16426;SDS011;8322;-33.900;151.170;2023-04-15T02:14:26;2.65;;;0.85;;
16426;SDS011;8322;-33.900;151.170;2023-04-15T02:16:55;2.67;;;1.05;;
16426;SDS011;8322;-33.900;151.170;2023-04-15T02:19:31;3.30;;;1.08;;
16426;SDS011;8322;-33.900;151.170;2023-04-15T02:22:01;2.25;;;0.90;;
16426;SDS011;8322;-33.900;151.170;2023-04-15T02:24:33;3.65;;;0.80;;
16426;SDS011;8322;-33.900;151.170;2023-04-15T02:27:02;1.75;;;0.60;;
16426;SDS011;8322;-33.900;151.170;2023-04-15T02:29:34;2.38;;;0.70;;
16426;SDS011;8322;-33.900;151.170;2023-04-15T02:32:03;2.60;;;0.80;;
16426;SDS011;8322;-33.900;151.170;2023-04-15T02:34:33;2.28;;;0.70;;
16426;SDS011;8322;-33.900;151.170;2023-04-15T02:37:04;2.20;;;0.90;;
16426;SDS011;8322;-33.900;151.170;2023-04-15T02:39:33;3.97;;;0.80;;
16426;SDS011;8322;-33.900;151.170;2023-04-15T02:42:03;2.08;;;0.70;;
16426;SDS011;8322;-33.900;151.170;2023-04-15T02:44:34;1.98;;;0.90;;
16426;SDS011;8322;-33.900;151.170;2023-04-15T02:47:04;2.67;;;0.80;;
16426;SDS011;8322;-33.900;151.170;2023-04-15T02:49:33;1.45;;;0.70;;
16426;SDS011;8322;-33.900;151.170;2023-04-15T02:52:03;1.95;;;0.85;;
16426;SDS011;8322;-33.900;151.170;2023-04-15T02:54:32;1.70;;;0.70;;
16426;SDS011;8322;-33.900;151.170;2023-04-15T02:57:02;2.45;;;0.77;;
16426;SDS011;8322;-33.900;151.170;2023-04-15T02:59:32;5.40;;;2.97;;
16426;SDS011;8322;-33.900;151.170;2023-04-15T03:02:03;4.63;;;1.80;;
16426;SDS011;8322;-33.900;151.170;2023-04-15T03:04:33;5.55;;;2.88;;
16426;SDS011;8322;-33.900;151.170;2023-04-15T03:07:02;4.90;;;2.28;;
16426;SDS011;8322;-33.900;151.170;2023-04-15T03:09:32;2.83;;;0.80;;
16426;SDS011;8322;-33.900;151.170;2023-04-15T03:12:01;1.67;;;1.23;;
16426;SDS011;8322;-33.900;151.170;2023-04-15T03:14:31;2.83;;;1.02;;
16426;SDS011;8322;-33.900;151.170;2023-04-15T03:17:00;4.80;;;3.00;;
16426;SDS011;8322;-33.900;151.170;2023-04-15T03:19:32;7.90;;;4.53;;
16426;SDS011;8322;-33.900;151.170;2023-04-15T03:22:01;6.30;;;3.58;;
16426;SDS011;8322;-33.900;151.170;2023-04-15T03:24:30;1.50;;;0.68;;
16426;SDS011;8322;-33.900;151.170;2023-04-15T03:27:00;6.13;;;1.83;;
16426;SDS011;8322;-33.900;151.170;2023-04-15T03:29:31;1.95;;;0.70;;
16426;SDS011;8322;-33.900;151.170;2023-04-15T03:32:00;3.25;;;1.00;;
16426;SDS011;8322;-33.900;151.170;2023-04-15T03:34:31;4.88;;;1.48;;
16426;SDS011;8322;-33.900;151.170;2023-04-15T03:37:01;3.78;;;1.00;;
16426;SDS011;8322;-33.900;151.170;2023-04-15T03:39:30;3.30;;;1.05;;
16426;SDS011;8322;-33.900;151.170;2023-04-15T03:42:00;2.60;;;0.90;;
16426;SDS011;8322;-33.900;151.170;2023-04-15T03:44:30;5.82;;;1.00;;
16426;SDS011;8322;-33.900;151.170;2023-04-15T03:46:59;6.40;;;1.70;;
16426;SDS011;8322;-33.900;151.170;2023-04-15T03:49:29;6.20;;;1.50;;
16426;SDS011;8322;-33.900;151.170;2023-04-15T03:52:00;5.13;;;1.60;;
16426;SDS011;8322;-33.900;151.170;2023-04-15T03:54:30;3.53;;;1.23;;
16426;SDS011;8322;-33.900;151.170;2023-04-15T03:56:59;3.50;;;1.02;;
16426;SDS011;8322;-33.900;151.170;2023-04-15T03:59:31;5.35;;;1.50;;
16426;SDS011;8322;-33.900;151.170;2023-04-15T04:02:01;8.88;;;1.63;;
16426;SDS011;8322;-33.900;151.170;2023-04-15T04:04:30;5.28;;;1.30;;
16426;SDS011;8322;-33.900;151.170;2023-04-15T04:07:02;8.38;;;2.20;;
16426;SDS011;8322;-33.900;151.170;2023-04-15T04:09:31;6.07;;;1.20;;
16426;SDS011;8322;-33.900;151.170;2023-04-15T04:12:01;8.25;;;1.95;;
16426;SDS011;8322;-33.900;151.170;2023-04-15T04:14:30;5.50;;;2.22;;
16426;SDS011;8322;-33.900;151.170;2023-04-15T04:17:00;6.68;;;1.83;;
16426;SDS011;8322;-33.900;151.170;2023-04-15T04:19:29;5.18;;;1.45;;
16426;SDS011;8322;-33.900;151.170;2023-04-15T04:21:59;6.68;;;1.75;;
16426;SDS011;8322;-33.900;151.170;2023-04-15T04:24:30;6.88;;;3.00;;
16426;SDS011;8322;-33.900;151.170;2023-04-15T04:26:59;5.05;;;1.50;;
16426;SDS011;8322;-33.900;151.170;2023-04-15T04:29:29;6.82;;;1.92;;
16426;SDS011;8322;-33.900;151.170;2023-04-15T04:31:58;5.80;;;1.55;;
16426;SDS011;8322;-33.900;151.170;2023-04-15T04:34:28;7.40;;;1.83;;
16426;SDS011;8322;-33.900;151.170;2023-04-15T04:36:57;6.57;;;2.30;;
16426;SDS011;8322;-33.900;151.170;2023-04-15T04:39:27;6.40;;;2.47;;
16426;SDS011;8322;-33.900;151.170;2023-04-15T04:41:58;6.18;;;1.63;;
16426;SDS011;8322;-33.900;151.170;2023-04-15T04:44:28;8.38;;;2.40;;
16426;SDS011;8322;-33.900;151.170;2023-04-15T04:46:57;4.90;;;1.80;;
16426;SDS011;8322;-33.900;151.170;2023-04-15T04:49:26;4.53;;;1.67;;
16426;SDS011;8322;-33.900;151.170;2023-04-15T04:51:56;11.00;;;1.85;;
16426;SDS011;8322;-33.900;151.170;2023-04-15T04:54:25;6.90;;;2.33;;
16426;SDS011;8322;-33.900;151.170;2023-04-15T04:56:57;8.10;;;2.45;;
16426;SDS011;8322;-33.900;151.170;2023-04-15T04:59:27;7.85;;;1.65;;
16426;SDS011;8322;-33.900;151.170;2023-04-15T05:01:57;9.60;;;3.40;;
16426;SDS011;8322;-33.900;151.170;2023-04-15T05:04:26;6.45;;;3.60;;
16426;SDS011;8322;-33.900;151.170;2023-04-15T05:06:56;7.38;;;1.90;;
16426;SDS011;8322;-33.900;151.170;2023-04-15T05:09:26;4.18;;;1.70;;
16426;SDS011;8322;-33.900;151.170;2023-04-15T05:11:59;5.93;;;1.60;;
16426;SDS011;8322;-33.900;151.170;2023-04-15T05:14:28;4.05;;;1.33;;
16426;SDS011;8322;-33.900;151.170;2023-04-15T05:16:58;4.78;;;1.67;;
16426;SDS011;8322;-33.900;151.170;2023-04-15T05:19:27;5.82;;;1.83;;
16426;SDS011;8322;-33.900;151.170;2023-04-15T05:21:57;7.35;;;1.90;;
16426;SDS011;8322;-33.900;151.170;2023-04-15T05:24:26;6.80;;;2.55;;
16426;SDS011;8322;-33.900;151.170;2023-04-15T05:26:56;5.85;;;1.35;;
16426;SDS011;8322;-33.900;151.170;2023-04-15T05:29:28;6.43;;;2.47;;
16426;SDS011;8322;-33.900;151.170;2023-04-15T05:31:58;5.80;;;2.58;;
16426;SDS011;8322;-33.900;151.170;2023-04-15T05:34:27;8.02;;;2.40;;
16426;SDS011;8322;-33.900;151.170;2023-04-15T05:36:57;4.35;;;1.90;;
16426;SDS011;8322;-33.900;151.170;2023-04-15T05:39:26;8.25;;;2.00;;
16426;SDS011;8322;-33.900;151.170;2023-04-15T05:41:57;5.97;;;1.30;;
16426;SDS011;8322;-33.900;151.170;2023-04-15T05:44:28;4.80;;;1.48;;
16426;SDS011;8322;-33.900;151.170;2023-04-15T05:46:58;8.52;;;1.80;;
16426;SDS011;8322;-33.900;151.170;2023-04-15T05:49:28;4.40;;;1.02;;
16426;SDS011;8322;-33.900;151.170;2023-04-15T05:51:58;3.30;;;1.13;;
16426;SDS011;8322;-33.900;151.170;2023-04-15T05:54:27;5.10;;;1.20;;
16426;SDS011;8322;-33.900;151.170;2023-04-15T05:56:57;6.25;;;1.30;;
16426;SDS011;8322;-33.900;151.170;2023-04-15T05:59:28;4.90;;;1.75;;
16426;SDS011;8322;-33.900;151.170;2023-04-15T06:01:58;7.13;;;1.92;;
16426;SDS011;8322;-33.900;151.170;2023-04-15T06:04:27;4.57;;;1.35;;
16426;SDS011;8322;-33.900;151.170;2023-04-15T06:06:57;6.38;;;1.52;;
16426;SDS011;8322;-33.900;151.170;2023-04-15T06:09:26;4.95;;;1.50;;
16426;SDS011;8322;-33.900;151.170;2023-04-15T06:11:56;7.25;;;2.40;;
16426;SDS011;8322;-33.900;151.170;2023-04-15T06:14:28;6.97;;;1.40;;
16426;SDS011;8322;-33.900;151.170;2023-04-15T06:16:58;5.35;;;1.50;;
16426;SDS011;8322;-33.900;151.170;2023-04-15T06:19:27;6.28;;;1.50;;
16426;SDS011;8322;-33.900;151.170;2023-04-15T06:21:57;6.60;;;1.52;;
16426;SDS011;8322;-33.900;151.170;2023-04-15T06:24:26;6.90;;;2.15;;
16426;SDS011;8322;-33.900;151.170;2023-04-15T06:26:58;8.18;;;2.20;;
16426;SDS011;8322;-33.900;151.170;2023-04-15T06:29:29;7.40;;;1.65;;
16426;SDS011;8322;-33.900;151.170;2023-04-15T06:31:58;4.03;;;1.50;;
16426;SDS011;8322;-33.900;151.170;2023-04-15T06:34:28;4.78;;;1.95;;
16426;SDS011;8322;-33.900;151.170;2023-04-15T06:36:57;11.13;;;3.92;;
16426;SDS011;8322;-33.900;151.170;2023-04-15T06:39:29;7.65;;;1.75;;
16426;SDS011;8322;-33.900;151.170;2023-04-15T06:41:59;9.73;;;2.45;;
16426;SDS011;8322;-33.900;151.170;2023-04-15T06:44:33;7.60;;;2.08;;
16426;SDS011;8322;-33.900;151.170;2023-04-15T06:47:03;10.07;;;2.45;;
16426;SDS011;8322;-33.900;151.170;2023-04-15T06:49:32;6.93;;;1.67;;
16426;SDS011;8322;-33.900;151.170;2023-04-15T06:52:01;8.13;;;2.38;;
16426;SDS011;8322;-33.900;151.170;2023-04-15T06:54:31;7.97;;;2.75;;
16426;SDS011;8322;-33.900;151.170;2023-04-15T06:57:00;9.25;;;1.85;;
16426;SDS011;8322;-33.900;151.170;2023-04-15T06:59:32;7.45;;;2.20;;
16426;SDS011;8322;-33.900;151.170;2023-04-15T07:02:01;9.23;;;3.90;;
16426;SDS011;8322;-33.900;151.170;2023-04-15T07:04:31;8.32;;;2.33;;
16426;SDS011;8322;-33.900;151.170;2023-04-15T07:07:00;5.55;;;1.83;;
16426;SDS011;8322;-33.900;151.170;2023-04-15T07:09:30;8.68;;;3.10;;
16426;SDS011;8322;-33.900;151.170;2023-04-15T07:12:00;15.32;;;5.88;;
16426;SDS011;8322;-33.900;151.170;2023-04-15T07:14:31;6.57;;;3.00;;
16426;SDS011;8322;-33.900;151.170;2023-04-15T07:17:01;9.23;;;2.42;;
16426;SDS011;8322;-33.900;151.170;2023-04-15T07:19:30;8.90;;;2.47;;
16426;SDS011;8322;-33.900;151.170;2023-04-15T07:22:00;6.40;;;2.33;;
16426;SDS011;8322;-33.900;151.170;2023-04-15T07:24:30;6.68;;;2.88;;
16426;SDS011;8322;-33.900;151.170;2023-04-15T07:26:59;6.80;;;2.25;;
16426;SDS011;8322;-33.900;151.170;2023-04-15T07:29:31;6.88;;;3.00;;
16426;SDS011;8322;-33.900;151.170;2023-04-15T07:32:01;9.10;;;3.58;;
16426;SDS011;8322;-33.900;151.170;2023-04-15T07:34:30;16.08;;;5.55;;
16426;SDS011;8322;-33.900;151.170;2023-04-15T07:37:00;12.75;;;4.65;;
16426;SDS011;8322;-33.900;151.170;2023-04-15T07:39:29;8.05;;;4.00;;
16426;SDS011;8322;-33.900;151.170;2023-04-15T07:41:58;8.05;;;3.58;;
16426;SDS011;8322;-33.900;151.170;2023-04-15T07:44:28;8.40;;;3.45;;
16426;SDS011;8322;-33.900;151.170;2023-04-15T07:47:00;12.75;;;4.68;;
16426;SDS011;8322;-33.900;151.170;2023-04-15T07:49:30;9.60;;;3.85;;
16426;SDS011;8322;-33.900;151.170;2023-04-15T07:51:59;8.43;;;2.83;;
16426;SDS011;8322;-33.900;151.170;2023-04-15T07:54:29;5.00;;;2.38;;
16426;SDS011;8322;-33.900;151.170;2023-04-15T07:56:58;10.07;;;3.50;;
16426;SDS011;8322;-33.900;151.170;2023-04-15T07:59:28;9.18;;;3.10;;
16426;SDS011;8322;-33.900;151.170;2023-04-15T08:02:00;7.38;;;2.78;;
16426;SDS011;8322;-33.900;151.170;2023-04-15T08:04:29;11.07;;;3.22;;
16426;SDS011;8322;-33.900;151.170;2023-04-15T08:06:59;14.30;;;4.38;;
16426;SDS011;8322;-33.900;151.170;2023-04-15T08:09:28;11.18;;;4.65;;
16426;SDS011;8322;-33.900;151.170;2023-04-15T08:11:58;8.73;;;4.40;;
16426;SDS011;8322;-33.900;151.170;2023-04-15T08:14:27;10.50;;;4.43;;
16426;SDS011;8322;-33.900;151.170;2023-04-15T08:16:57;17.75;;;6.50;;
16426;SDS011;8322;-33.900;151.170;2023-04-15T08:19:28;12.65;;;6.65;;
16426;SDS011;8322;-33.900;151.170;2023-04-15T08:21:58;14.32;;;8.65;;
16426;SDS011;8322;-33.900;151.170;2023-04-15T08:24:28;16.67;;;8.70;;
16426;SDS011;8322;-33.900;151.170;2023-04-15T08:26:58;12.35;;;6.80;;
16426;SDS011;8322;-33.900;151.170;2023-04-15T08:29:30;9.95;;;4.53;;
16426;SDS011;8322;-33.900;151.170;2023-04-15T08:32:00;12.50;;;4.57;;
16426;SDS011;8322;-33.900;151.170;2023-04-15T08:34:33;9.32;;;5.47;;
16426;SDS011;8322;-33.900;151.170;2023-04-15T08:37:02;7.78;;;4.75;;
16426;SDS011;8322;-33.900;151.170;2023-04-15T08:39:32;12.25;;;5.65;;
16426;SDS011;8322;-33.900;151.170;2023-04-15T08:42:01;9.65;;;4.63;;
16426;SDS011;8322;-33.900;151.170;2023-04-15T08:44:33;13.65;;;5.70;;
16426;SDS011;8322;-33.900;151.170;2023-04-15T08:47:03;11.02;;;5.28;;
16426;SDS011;8322;-33.900;151.170;2023-04-15T08:49:38;16.77;;;8.70;;
16426;SDS011;8322;-33.900;151.170;2023-04-15T08:52:08;17.30;;;8.73;;
16426;SDS011;8322;-33.900;151.170;2023-04-15T08:54:37;17.27;;;7.30;;
16426;SDS011;8322;-33.900;151.170;2023-04-15T08:57:07;11.18;;;4.95;;
16426;SDS011;8322;-33.900;151.170;2023-04-15T08:59:36;8.07;;;3.53;;
16426;SDS011;8322;-33.900;151.170;2023-04-15T09:02:06;7.70;;;3.83;;
16426;SDS011;8322;-33.900;151.170;2023-04-15T09:04:37;10.20;;;3.92;;
16426;SDS011;8322;-33.900;151.170;2023-04-15T09:07:07;9.23;;;2.78;;
16426;SDS011;8322;-33.900;151.170;2023-04-15T09:09:36;9.60;;;3.70;;
16426;SDS011;8322;-33.900;151.170;2023-04-15T09:12:07;12.00;;;4.28;;
16426;SDS011;8322;-33.900;151.170;2023-04-15T09:14:36;7.38;;;3.67;;
16426;SDS011;8322;-33.900;151.170;2023-04-15T09:17:07;11.50;;;4.40;;
16426;SDS011;8322;-33.900;151.170;2023-04-15T09:19:40;11.93;;;4.93;;
16426;SDS011;8322;-33.900;151.170;2023-04-15T09:22:09;12.40;;;4.63;;
16426;SDS011;8322;-33.900;151.170;2023-04-15T09:24:39;21.90;;;6.63;;
16426;SDS011;8322;-33.900;151.170;2023-04-15T09:27:08;14.32;;;5.78;;
16426;SDS011;8322;-33.900;151.170;2023-04-15T09:29:38;16.70;;;7.15;;
16426;SDS011;8322;-33.900;151.170;2023-04-15T09:32:10;16.85;;;6.97;;
16426;SDS011;8322;-33.900;151.170;2023-04-15T09:34:41;14.23;;;6.53;;
16426;SDS011;8322;-33.900;151.170;2023-04-15T09:37:11;15.57;;;8.15;;
16426;SDS011;8322;-33.900;151.170;2023-04-15T09:39:47;15.25;;;8.70;;
16426;SDS011;8322;-33.900;151.170;2023-04-15T09:42:16;14.75;;;6.05;;
16426;SDS011;8322;-33.900;151.170;2023-04-15T09:44:49;9.70;;;4.70;;
16426;SDS011;8322;-33.900;151.170;2023-04-15T09:47:28;17.08;;;6.40;;
16426;SDS011;8322;-33.900;151.170;2023-04-15T09:49:59;16.00;;;5.38;;
16426;SDS011;8322;-33.900;151.170;2023-04-15T09:52:29;13.90;;;5.68;;
16426;SDS011;8322;-33.900;151.170;2023-04-15T09:54:59;7.70;;;3.33;;
16426;SDS011;8322;-33.900;151.170;2023-04-15T09:57:32;9.30;;;3.15;;
16426;SDS011;8322;-33.900;151.170;2023-04-15T10:00:03;10.07;;;2.45;;
16426;SDS011;8322;-33.900;151.170;2023-04-15T10:02:34;9.10;;;3.60;;
16426;SDS011;8322;-33.900;151.170;2023-04-15T10:05:05;8.43;;;2.97;;
16426;SDS011;8322;-33.900;151.170;2023-04-15T10:07:35;12.02;;;5.00;;
16426;SDS011;8322;-33.900;151.170;2023-04-15T10:10:08;10.45;;;2.92;;
16426;SDS011;8322;-33.900;151.170;2023-04-15T10:12:37;4.93;;;1.75;;
16426;SDS011;8322;-33.900;151.170;2023-04-15T10:15:11;8.20;;;2.38;;
16426;SDS011;8322;-33.900;151.170;2023-04-15T10:17:43;6.63;;;2.53;;
16426;SDS011;8322;-33.900;151.170;2023-04-15T10:20:15;9.85;;;3.05;;
16426;SDS011;8322;-33.900;151.170;2023-04-15T10:22:45;7.40;;;2.55;;
16426;SDS011;8322;-33.900;151.170;2023-04-15T10:25:15;14.10;;;3.42;;
16426;SDS011;8322;-33.900;151.170;2023-04-15T10:27:45;7.07;;;2.00;;
16426;SDS011;8322;-33.900;151.170;2023-04-15T10:30:17;7.85;;;2.30;;
16426;SDS011;8322;-33.900;151.170;2023-04-15T10:32:46;11.20;;;3.45;;
16426;SDS011;8322;-33.900;151.170;2023-04-15T10:35:18;7.80;;;2.38;;
16426;SDS011;8322;-33.900;151.170;2023-04-15T10:37:49;6.65;;;2.70;;
16426;SDS011;8322;-33.900;151.170;2023-04-15T10:40:28;7.55;;;2.40;;
16426;SDS011;8322;-33.900;151.170;2023-04-15T10:42:58;8.95;;;2.50;;
16426;SDS011;8322;-33.900;151.170;2023-04-15T10:45:30;8.20;;;2.55;;
16426;SDS011;8322;-33.900;151.170;2023-04-15T10:48:01;7.65;;;2.35;;
16426;SDS011;8322;-33.900;151.170;2023-04-15T10:50:32;10.05;;;3.53;;
16426;SDS011;8322;-33.900;151.170;2023-04-15T10:53:02;8.75;;;3.60;;
16426;SDS011;8322;-33.900;151.170;2023-04-15T10:55:32;9.45;;;5.18;;
16426;SDS011;8322;-33.900;151.170;2023-04-15T10:58:02;5.03;;;2.65;;
16426;SDS011;8322;-33.900;151.170;2023-04-15T11:00:31;5.18;;;2.20;;
16426;SDS011;8322;-33.900;151.170;2023-04-15T11:03:04;6.65;;;2.40;;
16426;SDS011;8322;-33.900;151.170;2023-04-15T11:05:51;6.45;;;2.20;;
16426;SDS011;8322;-33.900;151.170;2023-04-15T11:08:52;7.18;;;2.28;;
16426;SDS011;8322;-33.900;151.170;2023-04-15T11:11:15;5.40;;;2.25;;
16426;SDS011;8322;-33.900;151.170;2023-04-15T11:13:47;7.32;;;2.20;;
16426;SDS011;8322;-33.900;151.170;2023-04-15T11:16:17;6.88;;;2.65;;
16426;SDS011;8322;-33.900;151.170;2023-04-15T11:18:53;5.85;;;1.48;;
16426;SDS011;8322;-33.900;151.170;2023-04-15T11:21:25;4.03;;;1.40;;
16426;SDS011;8322;-33.900;151.170;2023-04-15T11:23:55;5.10;;;1.60;;
16426;SDS011;8322;-33.900;151.170;2023-04-15T11:26:25;7.00;;;1.85;;
16426;SDS011;8322;-33.900;151.170;2023-04-15T11:28:54;8.90;;;2.03;;
16426;SDS011;8322;-33.900;151.170;2023-04-15T11:31:25;6.18;;;1.60;;
16426;SDS011;8322;-33.900;151.170;2023-04-15T11:33:55;7.10;;;1.80;;
16426;SDS011;8322;-33.900;151.170;2023-04-15T11:36:27;6.35;;;1.60;;
16426;SDS011;8322;-33.900;151.170;2023-04-15T11:38:57;5.63;;;1.42;;
16426;SDS011;8322;-33.900;151.170;2023-04-15T11:41:26;4.30;;;1.50;;
16426;SDS011;8322;-33.900;151.170;2023-04-15T11:43:56;4.18;;;1.58;;
16426;SDS011;8322;-33.900;151.170;2023-04-15T11:46:28;4.03;;;1.35;;
16426;SDS011;8322;-33.900;151.170;2023-04-15T11:48:58;3.97;;;1.40;;
16426;SDS011;8322;-33.900;151.170;2023-04-15T11:51:32;6.10;;;1.77;;
16426;SDS011;8322;-33.900;151.170;2023-04-15T11:54:02;3.33;;;1.52;;
16426;SDS011;8322;-33.900;151.170;2023-04-15T11:56:31;6.47;;;1.60;;
16426;SDS011;8322;-33.900;151.170;2023-04-15T11:59:01;4.10;;;1.45;;
16426;SDS011;8322;-33.900;151.170;2023-04-15T12:01:31;5.03;;;1.30;;
16426;SDS011;8322;-33.900;151.170;2023-04-15T12:04:01;5.45;;;1.90;;
16426;SDS011;8322;-33.900;151.170;2023-04-15T12:06:32;3.97;;;1.55;;
16426;SDS011;8322;-33.900;151.170;2023-04-15T12:09:07;3.60;;;1.58;;
16426;SDS011;8322;-33.900;151.170;2023-04-15T12:11:46;7.32;;;1.58;;
16426;SDS011;8322;-33.900;151.170;2023-04-15T12:14:18;9.40;;;2.70;;
16426;SDS011;8322;-33.900;151.170;2023-04-15T12:16:50;5.53;;;1.42;;
16426;SDS011;8322;-33.900;151.170;2023-04-15T12:19:24;3.80;;;1.40;;
16426;SDS011;8322;-33.900;151.170;2023-04-15T12:21:56;3.75;;;1.50;;
16426;SDS011;8322;-33.900;151.170;2023-04-15T12:24:26;7.60;;;1.70;;
16426;SDS011;8322;-33.900;151.170;2023-04-15T12:26:56;5.07;;;1.60;;
16426;SDS011;8322;-33.900;151.170;2023-04-15T12:29:27;3.88;;;1.42;;
16426;SDS011;8322;-33.900;151.170;2023-04-15T12:31:57;5.72;;;1.40;;
16426;SDS011;8322;-33.900;151.170;2023-04-15T12:34:27;3.90;;;1.40;;
16426;SDS011;8322;-33.900;151.170;2023-04-15T12:36:59;4.63;;;1.60;;
16426;SDS011;8322;-33.900;151.170;2023-04-15T12:39:29;4.65;;;1.58;;
16426;SDS011;8322;-33.900;151.170;2023-04-15T12:41:59;4.78;;;1.90;;
16426;SDS011;8322;-33.900;151.170;2023-04-15T12:44:29;4.82;;;1.73;;
16426;SDS011;8322;-33.900;151.170;2023-04-15T12:46:58;4.57;;;1.38;;
16426;SDS011;8322;-33.900;151.170;2023-04-15T12:49:28;4.18;;;1.40;;
16426;SDS011;8322;-33.900;151.170;2023-04-15T12:52:00;4.53;;;1.50;;
16426;SDS011;8322;-33.900;151.170;2023-04-15T12:54:29;4.13;;;1.67;;
16426;SDS011;8322;-33.900;151.170;2023-04-15T12:56:59;5.10;;;1.55;;
16426;SDS011;8322;-33.900;151.170;2023-04-15T12:59:29;6.40;;;1.67;;
16426;SDS011;8322;-33.900;151.170;2023-04-15T13:01:58;5.40;;;1.45;;
16426;SDS011;8322;-33.900;151.170;2023-04-15T13:04:28;2.88;;;1.35;;
16426;SDS011;8322;-33.900;151.170;2023-04-15T13:06:59;5.93;;;1.80;;
16426;SDS011;8322;-33.900;151.170;2023-04-15T13:09:29;4.80;;;1.75;;
16426;SDS011;8322;-33.900;151.170;2023-04-15T13:11:59;4.07;;;1.40;;
16426;SDS011;8322;-33.900;151.170;2023-04-15T13:14:29;3.92;;;1.60;;
16426;SDS011;8322;-33.900;151.170;2023-04-15T13:16:59;6.70;;;1.85;;
16426;SDS011;8322;-33.900;151.170;2023-04-15T13:19:33;3.90;;;1.50;;
16426;SDS011;8322;-33.900;151.170;2023-04-15T13:22:05;5.88;;;1.58;;
16426;SDS011;8322;-33.900;151.170;2023-04-15T13:24:35;3.22;;;1.40;;
16426;SDS011;8322;-33.900;151.170;2023-04-15T13:27:05;7.60;;;1.30;;
16426;SDS011;8322;-33.900;151.170;2023-04-15T13:29:35;4.43;;;1.05;;
16426;SDS011;8322;-33.900;151.170;2023-04-15T13:32:05;3.97;;;1.30;;
16426;SDS011;8322;-33.900;151.170;2023-04-15T13:34:34;2.13;;;1.30;;
16426;SDS011;8322;-33.900;151.170;2023-04-15T13:37:07;2.92;;;1.40;;
16426;SDS011;8322;-33.900;151.170;2023-04-15T13:39:37;2.20;;;1.27;;
16426;SDS011;8322;-33.900;151.170;2023-04-15T13:42:06;2.58;;;1.30;;
16426;SDS011;8322;-33.900;151.170;2023-04-15T13:44:35;3.13;;;1.35;;
16426;SDS011;8322;-33.900;151.170;2023-04-15T13:47:05;3.35;;;1.30;;
16426;SDS011;8322;-33.900;151.170;2023-04-15T13:49:34;3.33;;;1.23;;
16426;SDS011;8322;-33.900;151.170;2023-04-15T13:52:04;2.35;;;1.35;;
16426;SDS011;8322;-33.900;151.170;2023-04-15T13:54:35;5.35;;;1.30;;
16426;SDS011;8322;-33.900;151.170;2023-04-15T13:57:05;4.38;;;1.23;;
16426;SDS011;8322;-33.900;151.170;2023-04-15T13:59:34;2.22;;;0.95;;
16426;SDS011;8322;-33.900;151.170;2023-04-15T14:02:04;2.45;;;1.38;;
16426;SDS011;8322;-33.900;151.170;2023-04-15T14:04:33;2.80;;;1.40;;
16426;SDS011;8322;-33.900;151.170;2023-04-15T14:07:03;5.38;;;1.20;;
16426;SDS011;8322;-33.900;151.170;2023-04-15T14:09:32;2.65;;;1.25;;
16426;SDS011;8322;-33.900;151.170;2023-04-15T14:12:05;2.58;;;1.42;;
16426;SDS011;8322;-33.900;151.170;2023-04-15T14:14:34;4.57;;;1.52;;
16426;SDS011;8322;-33.900;151.170;2023-04-15T14:17:04;2.65;;;1.15;;
16426;SDS011;8322;-33.900;151.170;2023-04-15T14:19:34;4.38;;;2.17;;
16426;SDS011;8322;-33.900;151.170;2023-04-15T14:22:03;2.65;;;1.40;;
16426;SDS011;8322;-33.900;151.170;2023-04-15T14:24:32;4.72;;;1.60;;
16426;SDS011;8322;-33.900;151.170;2023-04-15T14:27:02;2.67;;;1.60;;
16426;SDS011;8322;-33.900;151.170;2023-04-15T14:29:33;3.33;;;1.20;;
16426;SDS011;8322;-33.900;151.170;2023-04-15T14:32:03;4.22;;;1.00;;
16426;SDS011;8322;-33.900;151.170;2023-04-15T14:34:32;2.25;;;1.00;;
16426;SDS011;8322;-33.900;151.170;2023-04-15T14:37:02;2.65;;;1.05;;
16426;SDS011;8322;-33.900;151.170;2023-04-15T14:39:31;3.20;;;1.58;;